EGPB/LSI METAR and TAF weather

Enter ICAO airport designator
Station Type Date Time Source
EGPB METAR 2024/06/16 08:20 UTC NOAA

EGPB 160820Z 08021KT 9999 VCSH BKN009 12/10 Q0997


Station Type Date Time Source
EGPB Decoded METAR 2024/06/16 08:20 UTC NOAA

Sumburgh Cape , United Kingdom (EGPB) 59-53N 001-18W
Jun 16, 2024 - 04:20 AM EDT / 2024.06.16 0820 UTC
Wind: from the E (080 degrees) at 24 MPH (21 KT):0
Visibility: greater than 7 mile(s):0
Sky conditions: mostly cloudy
Weather: showers in the vicinity
Temperature: 53 F (12 C)
Dew Point: 50 F (10 C)
Relative Humidity: 87%
Pressure (altimeter): 29.44 in. Hg (0997 hPa)
ob: EGPB 160820Z 08021KT 9999 VCSH BKN009 12/10 Q0997
cycle: 8

Station Type Date Time Source
EGPB TAF UTC NOAA

Error!

Example: see airport list